sensor_id;sensor_type;location;lat;lon;timestamp;P1;durP1;ratioP1;P2;durP2;ratioP2
10767;SDS011;5436;51.162;4.162;2022-09-13T05:55:24;8.73;;;4.70;;
10767;SDS011;5436;51.162;4.162;2022-09-13T06:00:42;7.60;;;4.77;;
10767;SDS011;5436;51.162;4.162;2022-09-13T06:05:43;9.33;;;4.73;;
10767;SDS011;5436;51.162;4.162;2022-09-13T06:08:15;10.57;;;4.97;;
10767;SDS011;5436;51.162;4.162;2022-09-13T06:10:55;8.67;;;4.77;;
10767;SDS011;5436;51.162;4.162;2022-09-13T06:16:04;9.43;;;4.73;;
10767;SDS011;5436;51.162;4.162;2022-09-13T06:31:06;7.47;;;4.47;;
10767;SDS011;5436;51.162;4.162;2022-09-13T06:41:31;7.10;;;5.03;;
10767;SDS011;5436;51.162;4.162;2022-09-13T06:49:07;8.17;;;5.13;;
10767;SDS011;5436;51.162;4.162;2022-09-13T07:09:19;7.93;;;5.30;;
10767;SDS011;5436;51.162;4.162;2022-09-13T07:26:59;11.20;;;6.20;;
10767;SDS011;5436;51.162;4.162;2022-09-13T07:29:32;10.00;;;6.90;;
10767;SDS011;5436;51.162;4.162;2022-09-13T07:34:39;10.87;;;7.13;;
10767;SDS011;5436;51.162;4.162;2022-09-13T07:37:08;10.50;;;7.37;;
10767;SDS011;5436;51.162;4.162;2022-09-13T07:39:38;10.40;;;7.13;;
10767;SDS011;5436;51.162;4.162;2022-09-13T07:42:10;12.23;;;7.60;;
10767;SDS011;5436;51.162;4.162;2022-09-13T07:44:38;11.50;;;7.33;;
10767;SDS011;5436;51.162;4.162;2022-09-13T07:47:09;10.67;;;7.70;;
10767;SDS011;5436;51.162;4.162;2022-09-13T07:49:40;14.53;;;8.73;;
10767;SDS011;5436;51.162;4.162;2022-09-13T07:52:12;12.43;;;8.40;;
10767;SDS011;5436;51.162;4.162;2022-09-13T07:57:13;12.80;;;8.37;;
10767;SDS011;5436;51.162;4.162;2022-09-13T07:59:45;13.33;;;9.00;;
10767;SDS011;5436;51.162;4.162;2022-09-13T08:02:17;13.77;;;9.37;;
10767;SDS011;5436;51.162;4.162;2022-09-13T08:04:46;14.40;;;9.40;;
10767;SDS011;5436;51.162;4.162;2022-09-13T08:09:42;14.17;;;9.40;;
10767;SDS011;5436;51.162;4.162;2022-09-13T08:12:13;14.87;;;9.70;;
10767;SDS011;5436;51.162;4.162;2022-09-13T08:14:48;14.93;;;9.63;;
10767;SDS011;5436;51.162;4.162;2022-09-13T08:22:20;15.60;;;10.43;;
10767;SDS011;5436;51.162;4.162;2022-09-13T08:24:49;15.97;;;10.27;;
10767;SDS011;5436;51.162;4.162;2022-09-13T08:27:22;14.57;;;9.53;;
10767;SDS011;5436;51.162;4.162;2022-09-13T08:29:52;17.23;;;10.83;;
10767;SDS011;5436;51.162;4.162;2022-09-13T08:32:23;16.83;;;10.60;;
10767;SDS011;5436;51.162;4.162;2022-09-13T08:34:52;12.13;;;9.10;;
10767;SDS011;5436;51.162;4.162;2022-09-13T08:37:23;14.57;;;10.43;;
10767;SDS011;5436;51.162;4.162;2022-09-13T08:42:30;13.60;;;10.27;;
10767;SDS011;5436;51.162;4.162;2022-09-13T08:45:14;15.63;;;10.40;;
10767;SDS011;5436;51.162;4.162;2022-09-13T08:47:45;14.57;;;10.00;;
10767;SDS011;5436;51.162;4.162;2022-09-13T08:50:18;15.17;;;9.53;;
10767;SDS011;5436;51.162;4.162;2022-09-13T08:52:57;16.43;;;10.10;;
10767;SDS011;5436;51.162;4.162;2022-09-13T08:58:16;15.33;;;10.67;;
10767;SDS011;5436;51.162;4.162;2022-09-13T09:03:37;15.70;;;11.00;;
10767;SDS011;5436;51.162;4.162;2022-09-13T09:06:12;16.00;;;10.83;;
10767;SDS011;5436;51.162;4.162;2022-09-13T09:08:44;16.57;;;11.37;;
10767;SDS011;5436;51.162;4.162;2022-09-13T09:38:46;12.65;;;9.18;;
10767;SDS011;5436;51.162;4.162;2022-09-13T09:43:48;12.65;;;9.25;;
10767;SDS011;5436;51.162;4.162;2022-09-13T09:46:26;10.82;;;8.18;;
10767;SDS011;5436;51.162;4.162;2022-09-13T09:51:56;11.25;;;7.63;;
10767;SDS011;5436;51.162;4.162;2022-09-13T09:54:29;10.70;;;7.43;;
10767;SDS011;5436;51.162;4.162;2022-09-13T09:59:32;13.00;;;7.22;;
10767;SDS011;5436;51.162;4.162;2022-09-13T10:02:14;12.25;;;7.53;;
10767;SDS011;5436;51.162;4.162;2022-09-13T10:04:53;9.68;;;6.93;;
10767;SDS011;5436;51.162;4.162;2022-09-13T10:07:25;8.20;;;6.57;;
10767;SDS011;5436;51.162;4.162;2022-09-13T10:10:01;10.88;;;6.75;;
10767;SDS011;5436;51.162;4.162;2022-09-13T10:12:34;10.23;;;7.05;;
10767;SDS011;5436;51.162;4.162;2022-09-13T10:20:33;11.15;;;8.43;;
10767;SDS011;5436;51.162;4.162;2022-09-13T10:23:09;11.98;;;8.48;;
10767;SDS011;5436;51.162;4.162;2022-09-13T10:28:35;12.70;;;7.80;;
10767;SDS011;5436;51.162;4.162;2022-09-13T10:31:13;15.70;;;9.85;;
10767;SDS011;5436;51.162;4.162;2022-09-13T10:33:45;16.52;;;10.40;;
10767;SDS011;5436;51.162;4.162;2022-09-13T10:36:27;14.35;;;9.95;;
10767;SDS011;5436;51.162;4.162;2022-09-13T10:39:01;16.65;;;10.32;;
10767;SDS011;5436;51.162;4.162;2022-09-13T10:41:35;17.10;;;10.70;;
10767;SDS011;5436;51.162;4.162;2022-09-13T10:46:49;13.02;;;9.25;;
10767;SDS011;5436;51.162;4.162;2022-09-13T10:52:21;12.50;;;8.00;;
10767;SDS011;5436;51.162;4.162;2022-09-13T10:58:20;10.20;;;7.27;;
10767;SDS011;5436;51.162;4.162;2022-09-13T11:10:14;12.90;;;7.27;;
10767;SDS011;5436;51.162;4.162;2022-09-13T11:12:51;12.00;;;7.87;;
10767;SDS011;5436;51.162;4.162;2022-09-13T11:15:38;12.48;;;8.00;;
10767;SDS011;5436;51.162;4.162;2022-09-13T11:18:32;12.43;;;7.72;;
10767;SDS011;5436;51.162;4.162;2022-09-13T11:21:18;13.10;;;8.13;;
10767;SDS011;5436;51.162;4.162;2022-09-13T11:24:06;17.30;;;9.80;;
10767;SDS011;5436;51.162;4.162;2022-09-13T11:26:53;14.13;;;10.10;;
10767;SDS011;5436;51.162;4.162;2022-09-13T11:29:32;17.50;;;11.23;;
10767;SDS011;5436;51.162;4.162;2022-09-13T11:32:16;14.88;;;9.13;;
10767;SDS011;5436;51.162;4.162;2022-09-13T11:34:58;24.23;;;14.00;;
10767;SDS011;5436;51.162;4.162;2022-09-13T11:37:51;21.50;;;13.25;;
10767;SDS011;5436;51.162;4.162;2022-09-13T11:40:31;18.23;;;12.88;;
10767;SDS011;5436;51.162;4.162;2022-09-13T11:43:18;15.98;;;11.10;;
10767;SDS011;5436;51.162;4.162;2022-09-13T11:51:13;19.25;;;14.27;;
10767;SDS011;5436;51.162;4.162;2022-09-13T11:53:58;20.17;;;13.60;;
10767;SDS011;5436;51.162;4.162;2022-09-13T12:01:40;17.95;;;12.05;;
10767;SDS011;5436;51.162;4.162;2022-09-13T12:04:14;18.55;;;12.38;;
10767;SDS011;5436;51.162;4.162;2022-09-13T12:09:19;16.40;;;11.82;;
10767;SDS011;5436;51.162;4.162;2022-09-13T12:11:54;18.90;;;11.93;;
10767;SDS011;5436;51.162;4.162;2022-09-13T12:21:54;15.63;;;10.93;;
10767;SDS011;5436;51.162;4.162;2022-09-13T12:42:28;12.90;;;8.55;;
10767;SDS011;5436;51.162;4.162;2022-09-13T15:23:32;19.93;;;14.63;;
10767;SDS011;5436;51.162;4.162;2022-09-13T15:26:07;19.70;;;15.23;;
10767;SDS011;5436;51.162;4.162;2022-09-13T15:33:39;19.70;;;15.40;;
10767;SDS011;5436;51.162;4.162;2022-09-13T15:36:12;19.27;;;15.30;;
10767;SDS011;5436;51.162;4.162;2022-09-13T15:41:17;19.07;;;14.60;;
10767;SDS011;5436;51.162;4.162;2022-09-13T15:43:55;19.00;;;14.33;;
10767;SDS011;5436;51.162;4.162;2022-09-13T15:46:25;18.80;;;14.03;;
10767;SDS011;5436;51.162;4.162;2022-09-13T15:51:24;17.70;;;13.00;;
10767;SDS011;5436;51.162;4.162;2022-09-13T15:53:56;14.97;;;13.07;;
10767;SDS011;5436;51.162;4.162;2022-09-13T15:56:31;14.53;;;12.37;;
10767;SDS011;5436;51.162;4.162;2022-09-13T15:59:07;15.27;;;12.40;;
10767;SDS011;5436;51.162;4.162;2022-09-13T16:04:06;14.63;;;11.70;;
10767;SDS011;5436;51.162;4.162;2022-09-13T16:06:36;13.73;;;10.70;;
10767;SDS011;5436;51.162;4.162;2022-09-13T16:11:47;12.40;;;10.07;;
10767;SDS011;5436;51.162;4.162;2022-09-13T16:14:17;13.77;;;9.33;;
10767;SDS011;5436;51.162;4.162;2022-09-13T16:16:46;12.03;;;8.00;;
10767;SDS011;5436;51.162;4.162;2022-09-13T16:19:18;10.03;;;7.10;;
10767;SDS011;5436;51.162;4.162;2022-09-13T16:21:55;9.77;;;6.20;;
10767;SDS011;5436;51.162;4.162;2022-09-13T16:24:26;8.40;;;6.57;;
10767;SDS011;5436;51.162;4.162;2022-09-13T16:26:58;10.73;;;6.00;;
10767;SDS011;5436;51.162;4.162;2022-09-13T16:29:27;9.00;;;5.53;;
10767;SDS011;5436;51.162;4.162;2022-09-13T16:31:56;9.47;;;6.10;;
10767;SDS011;5436;51.162;4.162;2022-09-13T16:34:26;8.17;;;5.70;;
10767;SDS011;5436;51.162;4.162;2022-09-13T16:36:54;6.17;;;5.23;;
10767;SDS011;5436;51.162;4.162;2022-09-13T16:39:23;12.80;;;5.80;;
10767;SDS011;5436;51.162;4.162;2022-09-13T16:41:53;8.33;;;5.30;;
10767;SDS011;5436;51.162;4.162;2022-09-13T16:44:25;12.03;;;5.67;;
10767;SDS011;5436;51.162;4.162;2022-09-13T16:46:54;8.00;;;5.27;;
10767;SDS011;5436;51.162;4.162;2022-09-13T16:49:23;6.77;;;4.87;;
10767;SDS011;5436;51.162;4.162;2022-09-13T16:51:52;6.90;;;4.90;;
10767;SDS011;5436;51.162;4.162;2022-09-13T16:54:23;10.50;;;5.13;;
10767;SDS011;5436;51.162;4.162;2022-09-13T16:56:54;8.43;;;5.60;;
10767;SDS011;5436;51.162;4.162;2022-09-13T16:59:27;9.87;;;5.40;;
10767;SDS011;5436;51.162;4.162;2022-09-13T17:01:56;7.20;;;5.10;;
10767;SDS011;5436;51.162;4.162;2022-09-13T17:04:25;7.27;;;5.00;;
10767;SDS011;5436;51.162;4.162;2022-09-13T17:06:55;7.40;;;4.83;;
10767;SDS011;5436;51.162;4.162;2022-09-13T17:09:26;10.13;;;4.87;;
10767;SDS011;5436;51.162;4.162;2022-09-13T17:11:55;10.53;;;4.67;;
10767;SDS011;5436;51.162;4.162;2022-09-13T17:14:26;9.47;;;5.17;;
10767;SDS011;5436;51.162;4.162;2022-09-13T17:16:57;10.47;;;4.87;;
10767;SDS011;5436;51.162;4.162;2022-09-13T17:19:27;7.37;;;4.60;;
10767;SDS011;5436;51.162;4.162;2022-09-13T17:21:58;9.90;;;4.70;;
10767;SDS011;5436;51.162;4.162;2022-09-13T17:24:30;6.33;;;4.93;;
10767;SDS011;5436;51.162;4.162;2022-09-13T17:26:59;5.20;;;4.20;;
10767;SDS011;5436;51.162;4.162;2022-09-13T17:29:31;9.17;;;5.23;;
10767;SDS011;5436;51.162;4.162;2022-09-13T17:32:02;9.50;;;4.80;;
10767;SDS011;5436;51.162;4.162;2022-09-13T17:34:32;8.80;;;4.90;;
10767;SDS011;5436;51.162;4.162;2022-09-13T17:37:01;7.30;;;4.63;;
10767;SDS011;5436;51.162;4.162;2022-09-13T17:39:31;8.47;;;4.50;;
10767;SDS011;5436;51.162;4.162;2022-09-13T17:42:00;8.67;;;4.13;;
10767;SDS011;5436;51.162;4.162;2022-09-13T17:44:32;7.90;;;4.10;;
10767;SDS011;5436;51.162;4.162;2022-09-13T17:47:02;7.70;;;4.03;;
10767;SDS011;5436;51.162;4.162;2022-09-13T17:49:31;7.57;;;4.43;;
10767;SDS011;5436;51.162;4.162;2022-09-13T17:52:00;8.33;;;3.90;;
10767;SDS011;5436;51.162;4.162;2022-09-13T17:54:30;6.83;;;3.83;;
10767;SDS011;5436;51.162;4.162;2022-09-13T17:56:59;7.23;;;4.03;;
10767;SDS011;5436;51.162;4.162;2022-09-13T17:59:28;11.87;;;4.90;;
10767;SDS011;5436;51.162;4.162;2022-09-13T18:02:04;7.13;;;4.57;;
10767;SDS011;5436;51.162;4.162;2022-09-13T18:04:34;10.27;;;4.23;;
10767;SDS011;5436;51.162;4.162;2022-09-13T18:07:03;8.70;;;4.17;;
10767;SDS011;5436;51.162;4.162;2022-09-13T18:09:32;8.27;;;4.70;;
10767;SDS011;5436;51.162;4.162;2022-09-13T18:12:02;6.77;;;4.53;;
10767;SDS011;5436;51.162;4.162;2022-09-13T18:14:32;8.10;;;5.37;;
10767;SDS011;5436;51.162;4.162;2022-09-13T18:17:04;8.20;;;5.27;;
10767;SDS011;5436;51.162;4.162;2022-09-13T18:19:37;9.00;;;5.17;;
10767;SDS011;5436;51.162;4.162;2022-09-13T18:22:06;8.93;;;5.20;;
10767;SDS011;5436;51.162;4.162;2022-09-13T18:24:35;8.00;;;5.00;;
10767;SDS011;5436;51.162;4.162;2022-09-13T18:27:04;10.60;;;4.90;;
10767;SDS011;5436;51.162;4.162;2022-09-13T18:29:33;9.57;;;4.90;;
10767;SDS011;5436;51.162;4.162;2022-09-13T18:32:05;9.03;;;5.30;;
10767;SDS011;5436;51.162;4.162;2022-09-13T18:34:36;13.13;;;6.37;;
10767;SDS011;5436;51.162;4.162;2022-09-13T18:37:06;9.63;;;5.60;;
10767;SDS011;5436;51.162;4.162;2022-09-13T18:39:35;11.60;;;6.40;;
10767;SDS011;5436;51.162;4.162;2022-09-13T18:42:05;7.40;;;4.83;;
10767;SDS011;5436;51.162;4.162;2022-09-13T18:47:10;7.67;;;5.30;;
10767;SDS011;5436;51.162;4.162;2022-09-13T18:49:40;11.37;;;4.80;;
10767;SDS011;5436;51.162;4.162;2022-09-13T18:52:09;9.67;;;5.37;;
10767;SDS011;5436;51.162;4.162;2022-09-13T18:54:38;8.93;;;4.90;;
10767;SDS011;5436;51.162;4.162;2022-09-13T18:57:07;7.67;;;4.57;;
10767;SDS011;5436;51.162;4.162;2022-09-13T18:59:36;10.93;;;4.80;;
10767;SDS011;5436;51.162;4.162;2022-09-13T19:02:07;12.50;;;5.23;;
10767;SDS011;5436;51.162;4.162;2022-09-13T19:04:40;7.27;;;4.73;;
10767;SDS011;5436;51.162;4.162;2022-09-13T19:07:09;10.43;;;6.10;;
10767;SDS011;5436;51.162;4.162;2022-09-13T19:09:38;9.13;;;5.27;;
10767;SDS011;5436;51.162;4.162;2022-09-13T19:12:07;12.00;;;5.30;;
10767;SDS011;5436;51.162;4.162;2022-09-13T19:14:37;14.60;;;5.83;;
10767;SDS011;5436;51.162;4.162;2022-09-13T19:17:07;8.00;;;5.13;;
10767;SDS011;5436;51.162;4.162;2022-09-13T19:19:37;12.07;;;5.03;;
10767;SDS011;5436;51.162;4.162;2022-09-13T19:22:08;12.73;;;4.70;;
10767;SDS011;5436;51.162;4.162;2022-09-13T19:27:09;8.37;;;5.27;;
10767;SDS011;5436;51.162;4.162;2022-09-13T19:29:38;12.33;;;5.20;;
10767;SDS011;5436;51.162;4.162;2022-09-13T19:32:07;13.50;;;4.23;;
10767;SDS011;5436;51.162;4.162;2022-09-13T19:34:36;6.47;;;4.60;;
10767;SDS011;5436;51.162;4.162;2022-09-13T19:37:08;9.80;;;5.07;;
10767;SDS011;5436;51.162;4.162;2022-09-13T19:39:37;10.07;;;5.30;;
10767;SDS011;5436;51.162;4.162;2022-09-13T19:42:06;9.37;;;5.03;;
10767;SDS011;5436;51.162;4.162;2022-09-13T19:44:35;6.27;;;4.80;;
10767;SDS011;5436;51.162;4.162;2022-09-13T19:47:06;12.20;;;5.30;;
10767;SDS011;5436;51.162;4.162;2022-09-13T19:49:40;7.67;;;5.20;;
10767;SDS011;5436;51.162;4.162;2022-09-13T19:52:12;7.00;;;4.60;;
10767;SDS011;5436;51.162;4.162;2022-09-13T19:54:42;8.73;;;4.70;;
10767;SDS011;5436;51.162;4.162;2022-09-13T19:57:11;6.77;;;4.33;;
10767;SDS011;5436;51.162;4.162;2022-09-13T19:59:43;7.97;;;4.37;;
10767;SDS011;5436;51.162;4.162;2022-09-13T20:02:12;6.43;;;4.47;;
10767;SDS011;5436;51.162;4.162;2022-09-13T20:04:45;8.97;;;4.43;;
10767;SDS011;5436;51.162;4.162;2022-09-13T20:07:17;12.50;;;5.00;;
10767;SDS011;5436;51.162;4.162;2022-09-13T20:09:47;10.03;;;4.70;;
10767;SDS011;5436;51.162;4.162;2022-09-13T20:12:16;9.90;;;5.23;;
10767;SDS011;5436;51.162;4.162;2022-09-13T20:14:49;7.53;;;4.50;;
10767;SDS011;5436;51.162;4.162;2022-09-13T20:17:19;6.80;;;4.53;;
10767;SDS011;5436;51.162;4.162;2022-09-13T20:19:50;9.37;;;5.10;;
10767;SDS011;5436;51.162;4.162;2022-09-13T20:22:23;7.97;;;5.10;;
10767;SDS011;5436;51.162;4.162;2022-09-13T20:24:53;8.97;;;4.33;;
10767;SDS011;5436;51.162;4.162;2022-09-13T20:27:22;8.23;;;5.00;;
10767;SDS011;5436;51.162;4.162;2022-09-13T20:29:51;9.80;;;4.70;;
10767;SDS011;5436;51.162;4.162;2022-09-13T20:32:20;9.27;;;4.60;;
10767;SDS011;5436;51.162;4.162;2022-09-13T20:34:50;9.70;;;5.23;;
10767;SDS011;5436;51.162;4.162;2022-09-13T20:37:23;11.77;;;5.10;;
10767;SDS011;5436;51.162;4.162;2022-09-13T20:39:53;10.67;;;4.90;;
10767;SDS011;5436;51.162;4.162;2022-09-13T20:42:25;8.57;;;4.73;;
10767;SDS011;5436;51.162;4.162;2022-09-13T20:45:00;8.07;;;5.03;;
10767;SDS011;5436;51.162;4.162;2022-09-13T20:47:29;7.63;;;4.77;;
10767;SDS011;5436;51.162;4.162;2022-09-13T20:50:01;8.50;;;4.67;;
10767;SDS011;5436;51.162;4.162;2022-09-13T20:52:34;10.23;;;4.87;;
10767;SDS011;5436;51.162;4.162;2022-09-13T20:55:05;10.70;;;5.40;;
10767;SDS011;5436;51.162;4.162;2022-09-13T20:57:36;13.00;;;5.30;;
10767;SDS011;5436;51.162;4.162;2022-09-13T21:02:39;10.10;;;5.30;;
10767;SDS011;5436;51.162;4.162;2022-09-13T21:05:08;6.83;;;4.50;;
10767;SDS011;5436;51.162;4.162;2022-09-13T21:07:40;10.13;;;4.97;;
10767;SDS011;5436;51.162;4.162;2022-09-13T21:10:22;7.77;;;5.10;;
10767;SDS011;5436;51.162;4.162;2022-09-13T21:12:51;9.10;;;4.90;;
10767;SDS011;5436;51.162;4.162;2022-09-13T21:17:53;7.73;;;4.80;;
10767;SDS011;5436;51.162;4.162;2022-09-13T21:20:23;6.10;;;5.23;;
10767;SDS011;5436;51.162;4.162;2022-09-13T21:22:54;9.00;;;5.00;;
10767;SDS011;5436;51.162;4.162;2022-09-13T21:25:24;10.63;;;5.00;;
10767;SDS011;5436;51.162;4.162;2022-09-13T21:27:54;10.30;;;5.27;;
10767;SDS011;5436;51.162;4.162;2022-09-13T21:30:25;8.53;;;5.20;;
10767;SDS011;5436;51.162;4.162;2022-09-13T21:32:53;9.00;;;5.03;;
10767;SDS011;5436;51.162;4.162;2022-09-13T21:35:23;12.43;;;5.17;;
10767;SDS011;5436;51.162;4.162;2022-09-13T21:37:57;11.83;;;5.63;;
10767;SDS011;5436;51.162;4.162;2022-09-13T21:40:26;10.97;;;5.47;;
10767;SDS011;5436;51.162;4.162;2022-09-13T21:42:55;12.40;;;5.63;;
10767;SDS011;5436;51.162;4.162;2022-09-13T21:45:26;11.33;;;5.57;;
10767;SDS011;5436;51.162;4.162;2022-09-13T21:47:55;7.73;;;4.73;;
10767;SDS011;5436;51.162;4.162;2022-09-13T21:50:25;11.30;;;5.80;;
10767;SDS011;5436;51.162;4.162;2022-09-13T21:52:58;9.70;;;5.27;;
10767;SDS011;5436;51.162;4.162;2022-09-13T21:55:27;9.57;;;5.60;;
10767;SDS011;5436;51.162;4.162;2022-09-13T21:57:56;16.40;;;5.63;;
10767;SDS011;5436;51.162;4.162;2022-09-13T22:00:29;8.30;;;5.23;;
10767;SDS011;5436;51.162;4.162;2022-09-13T22:03:00;8.33;;;5.50;;
10767;SDS011;5436;51.162;4.162;2022-09-13T22:05:29;8.30;;;5.10;;
10767;SDS011;5436;51.162;4.162;2022-09-13T22:08:01;9.13;;;4.80;;
10767;SDS011;5436;51.162;4.162;2022-09-13T22:10:31;8.10;;;5.10;;
10767;SDS011;5436;51.162;4.162;2022-09-13T22:13:03;8.43;;;5.40;;
10767;SDS011;5436;51.162;4.162;2022-09-13T22:15:33;8.20;;;5.23;;
10767;SDS011;5436;51.162;4.162;2022-09-13T22:18:02;9.83;;;4.77;;
10767;SDS011;5436;51.162;4.162;2022-09-13T22:20:33;8.80;;;5.20;;
10767;SDS011;5436;51.162;4.162;2022-09-13T22:23:05;9.80;;;4.77;;
10767;SDS011;5436;51.162;4.162;2022-09-13T22:25:34;10.97;;;4.60;;
10767;SDS011;5436;51.162;4.162;2022-09-13T22:28:07;8.10;;;4.60;;
10767;SDS011;5436;51.162;4.162;2022-09-13T22:30:36;8.47;;;4.37;;
10767;SDS011;5436;51.162;4.162;2022-09-13T22:33:05;9.17;;;4.47;;
10767;SDS011;5436;51.162;4.162;2022-09-13T22:35:34;7.57;;;4.77;;
10767;SDS011;5436;51.162;4.162;2022-09-13T22:38:05;6.43;;;4.53;;
10767;SDS011;5436;51.162;4.162;2022-09-13T22:40:34;12.57;;;4.87;;
10767;SDS011;5436;51.162;4.162;2022-09-13T22:43:09;13.03;;;5.00;;
10767;SDS011;5436;51.162;4.162;2022-09-13T22:45:38;11.30;;;5.33;;
10767;SDS011;5436;51.162;4.162;2022-09-13T22:48:06;11.27;;;4.93;;
10767;SDS011;5436;51.162;4.162;2022-09-13T22:50:35;11.30;;;5.37;;
10767;SDS011;5436;51.162;4.162;2022-09-13T22:53:08;9.33;;;4.77;;
10767;SDS011;5436;51.162;4.162;2022-09-13T22:55:37;10.20;;;5.20;;
10767;SDS011;5436;51.162;4.162;2022-09-13T22:58:07;8.83;;;5.40;;
10767;SDS011;5436;51.162;4.162;2022-09-13T23:00:38;8.70;;;4.87;;
10767;SDS011;5436;51.162;4.162;2022-09-13T23:03:08;9.90;;;4.97;;
10767;SDS011;5436;51.162;4.162;2022-09-13T23:05:38;10.20;;;4.97;;
10767;SDS011;5436;51.162;4.162;2022-09-13T23:08:11;9.57;;;5.00;;
10767;SDS011;5436;51.162;4.162;2022-09-13T23:10:41;11.20;;;5.00;;
10767;SDS011;5436;51.162;4.162;2022-09-13T23:13:09;10.27;;;4.90;;
10767;SDS011;5436;51.162;4.162;2022-09-13T23:15:38;9.87;;;4.53;;
10767;SDS011;5436;51.162;4.162;2022-09-13T23:18:07;6.20;;;4.80;;
10767;SDS011;5436;51.162;4.162;2022-09-13T23:20:38;8.20;;;4.80;;
10767;SDS011;5436;51.162;4.162;2022-09-13T23:23:10;10.77;;;4.73;;
10767;SDS011;5436;51.162;4.162;2022-09-13T23:25:39;6.63;;;4.97;;
10767;SDS011;5436;51.162;4.162;2022-09-13T23:28:09;9.23;;;4.60;;
10767;SDS011;5436;51.162;4.162;2022-09-13T23:30:38;15.90;;;4.90;;
10767;SDS011;5436;51.162;4.162;2022-09-13T23:33:08;9.60;;;5.13;;
10767;SDS011;5436;51.162;4.162;2022-09-13T23:35:38;7.77;;;4.10;;
10767;SDS011;5436;51.162;4.162;2022-09-13T23:38:13;10.87;;;4.47;;
10767;SDS011;5436;51.162;4.162;2022-09-13T23:40:42;8.47;;;4.57;;
10767;SDS011;5436;51.162;4.162;2022-09-13T23:43:10;9.90;;;4.17;;
10767;SDS011;5436;51.162;4.162;2022-09-13T23:45:41;14.23;;;4.50;;
10767;SDS011;5436;51.162;4.162;2022-09-13T23:48:10;8.67;;;4.50;;
10767;SDS011;5436;51.162;4.162;2022-09-13T23:50:39;13.63;;;4.30;;
10767;SDS011;5436;51.162;4.162;2022-09-13T23:53:13;11.33;;;4.70;;
10767;SDS011;5436;51.162;4.162;2022-09-13T23:55:44;8.67;;;4.50;;
10767;SDS011;5436;51.162;4.162;2022-09-13T23:58:14;9.07;;;4.67;;
